Flight Track Log - Related Links

Times and Time Zones

All times are in EDT time to prevent confusion due to time zone crossing. See the CSN3433 flight status page for this flight to view local times or setup timezone preferences in your user account.

Time Position Orientation Groundspeed Altitude Reporting Facility
EDT Latitude Longitude Course Direction KTS MPH feet Rate Location/Type
Wed 07:06:00 AM 22.7145 113.7285 314° West  Level Estimated
Wed 07:07:00 AM 22.7894 113.6445 314° West  Level Estimated
Wed 07:08:00 AM 22.8643 113.5605 314° West  Level Estimated
Wed 07:09:00 AM 22.9379 113.4778 314° West  Level Estimated
Wed 07:10:00 AM 23.0114 113.3951 314° West  Level Estimated
Wed 07:11:00 AM 23.0842 113.3130 314° West  Level Estimated
Wed 07:12:00 AM 23.1569 113.2308 314° West  Level Estimated
Wed 07:13:00 AM 23.2296 113.1485 314° West  Level Estimated
Wed 07:14:00 AM 23.3023 113.0661 314° West  Level Estimated
Wed 07:15:00 AM 23.3749 112.9837 314° West  Level Estimated
Wed 07:16:00 AM 23.4475 112.9011 314° West  Level Estimated
Wed 07:17:00 AM 23.5201 112.8185 314° West  Level Estimated
Wed 07:18:00 AM 23.5925 112.7358 314° West  Level Estimated
Wed 07:19:00 AM 23.6650 112.6529 314° West  Level Estimated
Wed 07:20:00 AM 23.7374 112.5700 314° West  Level Estimated
Wed 07:21:00 AM 23.8098 112.4870 314° West  Level Estimated
Wed 07:22:00 AM 23.8821 112.4039 314° West  Level Estimated
Wed 07:23:00 AM 23.9544 112.3207 314° West  Level Estimated
Wed 07:24:00 AM 24.0266 112.2374 314° West  Level Estimated
Wed 07:25:00 AM 24.0988 112.1541 313° West  Level Estimated
Wed 07:26:00 AM 24.1709 112.0706 313° West  Level Estimated
Wed 07:27:00 AM 24.2430 111.9870 313° West  Level Estimated
Wed 07:28:00 AM 24.3151 111.9034 313° West  Level Estimated
Wed 07:29:00 AM 24.3871 111.8196 313° West  Level Estimated
Wed 07:30:00 AM 24.4590 111.7357 313° West  Level Estimated
Wed 07:31:00 AM 24.5309 111.6518 313° West  Level Estimated
Wed 07:32:00 AM 24.6028 111.5677 313° West  Level Estimated
Wed 07:33:00 AM 24.6746 111.4836 313° West  Level Estimated
Wed 07:34:00 AM 24.7464 111.3994 313° West  Level Estimated
Wed 07:35:00 AM 24.8181 111.3150 313° West  Level Estimated
Wed 07:36:00 AM 24.8898 111.2306 313° West  Level Estimated
Wed 07:37:00 AM 24.9614 111.1461 313° West  Level Estimated
Wed 07:38:00 AM 25.0330 111.0614 313° West  Level Estimated
Wed 07:39:00 AM 25.1045 110.9767 313° West  Level Estimated
Wed 07:40:00 AM 25.1760 110.8919 313° West  Level Estimated
Wed 07:41:00 AM 25.2474 110.8069 313° West  Level Estimated
Wed 07:42:00 AM 25.3188 110.7219 313° West  Level Estimated
Wed 07:43:00 AM 25.3901 110.6368 313° West  Level Estimated
Wed 07:44:00 AM 25.4614 110.5516 313° West  Level Estimated
Wed 07:45:00 AM 25.5327 110.4662 313° West  Level Estimated
Wed 07:46:00 AM 25.6039 110.3808 313° West  Level Estimated
Wed 07:47:00 AM 25.6750 110.2953 313° West  Level Estimated
Wed 07:48:00 AM 25.7461 110.2096 313° West  Level Estimated
Wed 07:49:00 AM 25.8171 110.1239 313° West  Level Estimated
Wed 07:50:00 AM 25.8881 110.0380 313° West  Level Estimated
Wed 07:51:00 AM 25.9591 109.9521 313° West  Level Estimated
Wed 07:52:00 AM 26.0299 109.8661 313° West  Level Estimated
Wed 07:53:00 AM 26.1008 109.7799 312° West  Level Estimated
Wed 07:54:00 AM 26.1716 109.6937 312° West  Level Estimated
Wed 07:55:00 AM 26.2423 109.6073 312° West  Level Estimated
Wed 07:56:00 AM 26.3130 109.5208 312° West  Level Estimated
Wed 07:57:00 AM 26.3836 109.4343 312° West  Level Estimated
Wed 07:58:00 AM 26.4542 109.3476 312° West  Level Estimated
Wed 07:59:00 AM 26.5247 109.2608 312° West  Level Estimated
Wed 08:00:00 AM 26.5952 109.1739 312° West  Level Estimated
Wed 08:01:00 AM 26.6656 109.0869 312° West  Level Estimated
Wed 08:02:00 AM 26.7360 108.9998 312° West  Level Estimated
Wed 08:03:00 AM 26.8063 108.9126 312° West  Level Estimated
Wed 08:04:00 AM 26.8766 108.8253 312° West  Level Estimated
Wed 08:05:00 AM 26.9468 108.7378 312° West  Level Estimated
Wed 08:06:00 AM 27.0169 108.6503 312° West  Level Estimated
Wed 08:07:00 AM 27.0870 108.5627 312° West  Level Estimated
Wed 08:08:00 AM 27.1571 108.4749 312° West  Level Estimated
Wed 08:09:00 AM 27.2271 108.3870 312° West  Level Estimated
Wed 08:10:00 AM 27.2970 108.2991 312° West  Level Estimated
Wed 08:11:00 AM 27.3669 108.2110 312° West  Level Estimated
Wed 08:12:00 AM 27.4367 108.1228 312° West  Level Estimated
Wed 08:13:00 AM 27.5065 108.0345 312° West  Level Estimated
Wed 08:14:00 AM 27.5762 107.9460 312° West  Level Estimated
Wed 08:15:00 AM 27.6458 107.8575 312° West  Level Estimated
Wed 08:16:00 AM 27.7154 107.7689 312° West  Level Estimated
Wed 08:17:00 AM 27.7850 107.6801 312° West  Level Estimated
Wed 08:18:00 AM 27.8545 107.5912 311° West  Level Estimated
Wed 08:19:00 AM 27.9239 107.5022 311° West  Level Estimated
Wed 08:20:00 AM 27.9933 107.4131 311° West  Level Estimated
Wed 08:21:00 AM 28.0626 107.3239 311° West  Level Estimated
Wed 08:22:00 AM 28.1318 107.2346 311° West  Level Estimated
Wed 08:23:00 AM 28.2010 107.1451 311° West  Level Estimated
Wed 08:24:00 AM 28.2702 107.0556 311° West  Level Estimated
Wed 08:25:00 AM 28.3393 106.9659 311° West  Level Estimated
Wed 08:26:00 AM 28.4083 106.8761 311° West  Level Estimated
Wed 08:27:00 AM 28.4773 106.7862 311° West  Level Estimated
Wed 08:28:00 AM 28.5462 106.6961 311° West  Level Estimated
Wed 08:29:00 AM 28.6150 106.6060 311° West  Level Estimated
Wed 08:30:00 AM 28.6838 106.5157 311° West  Level Estimated
Wed 08:31:00 AM 28.7525 106.4253 311° West  Level Estimated
Wed 08:32:00 AM 28.8212 106.3348 311° West  Level Estimated
Wed 08:33:00 AM 28.8898 106.2442 311° West  Level Estimated
Wed 08:34:00 AM 28.9583 106.1535 311° West  Level Estimated
Wed 08:35:00 AM 29.0268 106.0626 311° West  Level Estimated
Wed 08:36:00 AM 29.0953 105.9716 311° West  Level Estimated
Wed 08:37:00 AM 29.1636 105.8805 311° West  Level Estimated
Wed 08:38:00 AM 29.2319 105.7893 311° West  Level Estimated
Wed 08:39:00 AM 29.3002 105.6979 311° West  Level Estimated
Wed 08:40:00 AM 29.3683 105.6064 311° West  Level Estimated
Wed 08:41:00 AM 29.4364 105.5148 311° West  Level Estimated
Wed 08:42:00 AM 29.5045 105.4231 310° West  Level Estimated
Wed 08:43:00 AM 29.5725 105.3313 310° West  Level Estimated
Wed 08:44:00 AM 29.6404 105.2393 310° West  Level Estimated
Wed 08:45:00 AM 29.7083 105.1472 310° West  Level Estimated
Wed 08:46:00 AM 29.7761 105.0550 310° West  Level Estimated
Wed 08:47:00 AM 29.8438 104.9627 310° West  Level Estimated
Wed 08:48:00 AM 29.9115 104.8702 310° West  Level Estimated
Wed 08:49:00 AM 29.9791 104.7776 310° West  Level Estimated
Wed 08:50:00 AM 30.0466 104.6849 310° West  Level Estimated
Wed 08:51:00 AM 30.1141 104.5921 310° West  Level Estimated
Wed 08:52:00 AM 30.1815 104.4991 310° West  Level Estimated
Wed 08:53:00 AM 30.2488 104.4060 310° West  Level Estimated
Wed 08:54:00 AM 30.3161 104.3128 310° West  Level Estimated
Wed 08:55:00 AM 30.3833 104.2194 310° West  Level Estimated
Wed 08:56:00 AM 30.4476 104.1299 310° West  Level Estimated
Wed 08:57:00 AM 30.5119 104.0403 310° West  Level Estimated
Wed 08:58:00 AM 30.5761 103.9505 310° West  Level Estimated
Wed 08:59:00 AM 30.5785 103.9471 310° West  Level Estimated
Wed 09:00:00 AM 30.5785 103.9471 North  Level Estimated
Wed 09:01:00 AM 30.5785 103.9471 North  Level Estimated
Wed 09:02:00 AM 30.5785 103.9471 North  Level Estimated
Wed 09:03:00 AM 30.5785 103.9471 North  Level Estimated
Wed 09:04:00 AM 30.5785 103.9471 North  Level Estimated
Wed 09:05:00 AM 30.5785 103.9471 North  Level Estimated
Wed 09:06:00 AM 30.5785 103.9471 North  Level Estimated
Wed 09:07:00 AM 30.5785 103.9471 North  Level Estimated
Wed 09:08:00 AM 30.5785 103.9471 North  Level Estimated
Wed 09:09:00 AM 30.5785 103.9471 North  Level Estimated
Wed 09:10:00 AM 30.5785 103.9471 North  Level Estimated
Wed 09:11:00 AM 30.5785 103.9471 North  Level Estimated
Wed 09:12:00 AM 30.5785 103.9471 North  Level Estimated
Wed 09:13:00 AM 30.5785 103.9471 North  Level Estimated
Wed 09:14:00 AM 30.5785 103.9471 North  Level Estimated
Wed 09:15:00 AM 30.5785 103.9471 North  Level Estimated
Wed 09:16:00 AM 30.5785 103.9471 North  Level Estimated
Wed 09:17:00 AM 30.5785 103.9471 North  Level Estimated

Login

Don't have an account? Register now (free) for customized features, flight alerts, and more!